createdAt,value
2018-07-23T00:00:55.972Z,15.72
2018-07-23T00:03:24.182Z,17.02
2018-07-23T00:05:52.221Z,15.68
2018-07-23T00:08:20.242Z,17.92
2018-07-23T00:10:48.343Z,14.60
2018-07-23T00:13:16.385Z,15.25
2018-07-23T00:15:44.377Z,14.68
2018-07-23T00:18:12.470Z,14.70
2018-07-23T00:20:40.576Z,16.50
2018-07-23T00:23:08.840Z,17.20
2018-07-23T00:25:36.903Z,17.10
2018-07-23T00:28:04.920Z,16.07
2018-07-23T00:30:32.995Z,15.38
2018-07-23T00:33:01.099Z,18.10
2018-07-23T00:35:29.155Z,16.80
2018-07-23T00:37:57.154Z,16.95
2018-07-23T00:40:25.163Z,15.70
2018-07-23T00:42:53.269Z,15.23
2018-07-23T00:45:21.351Z,14.68
2018-07-23T00:47:49.450Z,13.00
2018-07-23T00:50:17.517Z,12.65
2018-07-23T00:52:45.438Z,13.95
2018-07-23T00:55:13.525Z,14.13
2018-07-23T00:57:41.624Z,16.20
2018-07-23T01:00:09.677Z,16.85
2018-07-23T01:02:37.691Z,14.78
2018-07-23T01:05:05.791Z,12.33
2018-07-23T01:07:33.889Z,10.75
2018-07-23T01:10:01.931Z,11.83
2018-07-23T01:12:34.029Z,9.28
2018-07-23T01:15:02.431Z,9.83
2018-07-23T01:17:30.465Z,9.05
2018-07-23T01:19:59.397Z,9.20
2018-07-23T01:22:28.118Z,9.85
2018-07-23T01:24:57.135Z,12.23
2018-07-23T01:27:25.320Z,9.10
2018-07-23T01:29:53.356Z,8.45
2018-07-23T01:32:21.492Z,8.08
2018-07-23T01:34:49.911Z,10.23
2018-07-23T01:37:18.459Z,7.72
2018-07-23T01:39:46.632Z,7.85
2018-07-23T01:42:14.688Z,7.15
2018-07-23T01:44:42.834Z,7.90
2018-07-23T01:47:11.166Z,8.35
2018-07-23T01:49:39.337Z,9.25
2018-07-23T01:52:07.353Z,8.43
2018-07-23T01:54:35.768Z,8.93
2018-07-23T01:57:03.910Z,9.53
2018-07-23T01:59:32.144Z,8.28
2018-07-23T02:02:00.112Z,7.58
2018-07-23T02:04:28.123Z,10.00
2018-07-23T02:06:56.080Z,7.83
2018-07-23T02:09:24.103Z,7.50
2018-07-23T02:11:52.149Z,6.62
2018-07-23T02:14:20.277Z,7.25
2018-07-23T02:16:48.424Z,6.10
2018-07-23T02:19:16.533Z,7.95
2018-07-23T02:21:44.553Z,7.22
2018-07-23T02:24:12.543Z,11.48
2018-07-23T02:26:40.610Z,13.68
2018-07-23T02:29:08.835Z,14.47
2018-07-23T02:31:36.965Z,14.95
2018-07-23T02:34:04.875Z,14.63
2018-07-23T02:36:32.925Z,14.60
2018-07-23T02:39:00.973Z,15.00
2018-07-23T02:41:29.048Z,14.45
2018-07-23T02:43:57.042Z,16.30
2018-07-23T02:46:25.212Z,15.28
2018-07-23T02:48:53.179Z,14.10
2018-07-23T02:51:21.340Z,14.13
2018-07-23T02:53:49.453Z,13.00
2018-07-23T02:56:17.375Z,13.70
2018-07-23T02:58:45.465Z,13.90
2018-07-23T03:01:13.475Z,14.10
2018-07-23T03:03:41.557Z,10.80
2018-07-23T03:06:09.613Z,13.03
2018-07-23T03:08:37.620Z,11.75
2018-07-23T03:11:05.676Z,12.05
2018-07-23T03:13:33.918Z,13.13
2018-07-23T03:16:01.927Z,8.33
2018-07-23T03:18:29.951Z,8.98
2018-07-23T03:20:58.008Z,12.33
2018-07-23T03:23:26.066Z,8.63
2018-07-23T03:25:54.211Z,9.30
2018-07-23T03:28:22.270Z,8.93
2018-07-23T03:30:50.234Z,8.53
2018-07-23T03:33:18.342Z,8.80
2018-07-23T03:35:46.374Z,8.13
2018-07-23T03:38:14.776Z,9.45
2018-07-23T03:40:42.798Z,7.87
2018-07-23T03:43:11.236Z,9.85
2018-07-23T03:45:39.222Z,8.40
2018-07-23T03:48:07.331Z,8.53
2018-07-23T03:50:35.614Z,8.95
2018-07-23T03:53:03.751Z,8.23
2018-07-23T03:55:31.734Z,9.95
2018-07-23T03:57:59.835Z,7.97
2018-07-23T04:00:27.791Z,8.03
2018-07-23T04:02:55.818Z,7.92
2018-07-23T04:05:23.853Z,7.12
2018-07-23T04:07:51.930Z,6.35
2018-07-23T04:10:19.886Z,7.62
2018-07-23T04:12:47.832Z,7.67
2018-07-23T04:15:15.883Z,5.75
2018-07-23T04:17:50.832Z,9.03
2018-07-23T04:20:18.904Z,9.75
2018-07-23T04:22:46.949Z,5.50
2018-07-23T04:25:15.020Z,9.30
2018-07-23T04:27:43.007Z,6.15
2018-07-23T04:30:11.112Z,8.83
2018-07-23T04:32:39.232Z,8.75
2018-07-23T04:35:07.325Z,7.37
2018-07-23T04:37:35.383Z,6.67
2018-07-23T04:40:03.617Z,6.20
2018-07-23T04:42:32.151Z,5.35
2018-07-23T04:45:00.198Z,6.97
2018-07-23T04:47:28.263Z,5.85
2018-07-23T04:49:56.227Z,5.80
2018-07-23T04:52:24.330Z,8.95
2018-07-23T04:54:52.415Z,6.42
2018-07-23T04:57:20.547Z,7.00
2018-07-23T04:59:48.569Z,7.08
2018-07-23T05:02:16.612Z,8.23
2018-07-23T05:04:44.640Z,9.23
2018-07-23T05:07:12.639Z,8.35
2018-07-23T05:09:40.591Z,9.35
2018-07-23T05:12:08.569Z,9.50
2018-07-23T05:14:36.560Z,8.75
2018-07-23T05:17:04.672Z,8.43
2018-07-23T05:19:32.720Z,5.37
2018-07-23T05:22:00.791Z,7.40
2018-07-23T05:24:28.866Z,6.37
2018-07-23T05:26:56.973Z,7.00
2018-07-23T05:29:25.812Z,5.78
2018-07-23T05:31:53.917Z,7.28
2018-07-23T05:34:21.995Z,5.58
2018-07-23T05:36:50.248Z,7.65
2018-07-23T05:39:18.459Z,5.05
2018-07-23T05:41:46.487Z,3.85
2018-07-23T05:44:14.571Z,4.67
2018-07-23T05:46:42.739Z,6.30
2018-07-23T05:49:10.777Z,5.35
2018-07-23T05:51:38.759Z,5.42
2018-07-23T05:54:07.312Z,5.03
2018-07-23T05:56:35.388Z,5.30
2018-07-23T05:59:03.568Z,5.65
2018-07-23T06:01:31.662Z,7.60
2018-07-23T06:04:00.187Z,4.75
2018-07-23T06:06:28.297Z,5.25
2018-07-23T06:08:56.366Z,4.37
2018-07-23T06:11:24.491Z,2.90
2018-07-23T06:13:52.623Z,4.62
2018-07-23T06:16:20.970Z,4.55
2018-07-23T06:18:49.098Z,4.62
2018-07-23T06:21:17.245Z,4.03
2018-07-23T06:23:45.288Z,3.27
2018-07-23T06:26:13.344Z,5.05
2018-07-23T06:28:41.439Z,5.33
2018-07-23T06:31:09.579Z,4.62
2018-07-23T06:33:37.851Z,5.05
2018-07-23T06:36:05.925Z,4.55
2018-07-23T06:38:34.145Z,4.50
2018-07-23T06:41:02.231Z,6.78
2018-07-23T06:43:30.284Z,7.37
2018-07-23T06:45:58.512Z,7.95
2018-07-23T06:48:26.744Z,6.22
2018-07-23T06:50:55.076Z,5.92
2018-07-23T06:53:23.116Z,9.53
2018-07-23T06:55:51.271Z,5.28
2018-07-23T06:58:19.402Z,5.60
2018-07-23T07:00:47.539Z,7.85
2018-07-23T07:03:15.673Z,7.65
2018-07-23T07:05:43.742Z,8.03
2018-07-23T07:08:11.902Z,6.03
2018-07-23T07:10:39.974Z,6.90
2018-07-23T07:13:08.044Z,7.17
2018-07-23T07:15:36.165Z,8.25
2018-07-23T07:18:04.205Z,7.12
2018-07-23T07:20:32.771Z,6.62
2018-07-23T07:23:01.115Z,7.90
2018-07-23T07:25:29.186Z,7.58
2018-07-23T07:27:57.420Z,7.50
2018-07-23T07:30:25.523Z,7.30
2018-07-23T07:32:53.623Z,8.85
2018-07-23T07:35:21.741Z,8.33
2018-07-23T07:37:49.843Z,8.33
2018-07-23T07:40:17.854Z,6.95
2018-07-23T07:42:46.007Z,8.58
2018-07-23T07:45:13.996Z,6.50
2018-07-23T07:47:42.136Z,7.75
2018-07-23T07:50:10.229Z,9.83
2018-07-23T07:52:38.290Z,7.60
2018-07-23T07:55:06.474Z,6.53
2018-07-23T07:57:34.557Z,8.85
2018-07-23T08:00:02.660Z,6.97
2018-07-23T08:02:30.635Z,10.35
2018-07-23T08:04:58.595Z,7.47
2018-07-23T08:07:26.680Z,7.35
2018-07-23T08:09:54.837Z,5.12
2018-07-23T08:12:23.041Z,5.83
2018-07-23T08:14:51.039Z,7.97
2018-07-23T08:17:19.044Z,9.10
2018-07-23T08:19:47.524Z,7.30
2018-07-23T08:22:15.580Z,8.58
2018-07-23T08:24:43.864Z,6.87
2018-07-23T08:27:12.072Z,6.70
2018-07-23T08:29:40.246Z,5.03
2018-07-23T08:32:08.310Z,8.13
2018-07-23T08:34:36.373Z,7.00
2018-07-23T08:37:04.631Z,6.00
2018-07-23T08:39:32.653Z,5.97
2018-07-23T08:42:00.858Z,7.50
2018-07-23T08:44:28.852Z,6.60
2018-07-23T08:46:57.058Z,5.92
2018-07-23T08:49:25.299Z,5.62
2018-07-23T08:51:53.683Z,5.60
2018-07-23T08:54:21.822Z,6.70
2018-07-23T08:56:50.142Z,7.53
2018-07-23T08:59:19.526Z,7.00
2018-07-23T09:01:47.568Z,4.60
2018-07-23T09:04:15.648Z,5.53
2018-07-23T09:06:43.921Z,5.58
2018-07-23T09:09:11.911Z,5.12
2018-07-23T09:11:40.126Z,5.95
2018-07-23T09:14:08.152Z,6.03
2018-07-23T09:16:36.255Z,6.47
2018-07-23T09:19:04.946Z,6.08
2018-07-23T09:21:33.062Z,9.70
2018-07-23T09:24:01.195Z,9.33
2018-07-23T09:26:29.268Z,9.80
2018-07-23T09:28:57.470Z,9.00
2018-07-23T09:31:25.683Z,6.25
2018-07-23T09:33:53.711Z,6.92
2018-07-23T09:36:21.811Z,7.08
2018-07-23T09:38:49.958Z,8.08
2018-07-23T09:41:18.225Z,6.10
2018-07-23T09:43:46.293Z,6.95
2018-07-23T09:46:14.463Z,6.20
2018-07-23T09:48:42.441Z,5.83
2018-07-23T09:51:10.505Z,6.78
2018-07-23T09:53:38.505Z,6.95
2018-07-23T09:56:06.860Z,5.70
2018-07-23T09:58:35.289Z,7.03
2018-07-23T10:01:08.727Z,5.45
2018-07-23T10:03:37.034Z,5.87
2018-07-23T10:06:05.182Z,6.78
2018-07-23T10:08:34.423Z,6.22
2018-07-23T10:11:02.560Z,7.35
2018-07-23T10:13:30.622Z,6.33
2018-07-23T10:15:58.846Z,5.40
2018-07-23T10:18:26.888Z,6.28
2018-07-23T10:20:55.201Z,6.03
2018-07-23T10:23:23.357Z,5.05
2018-07-23T10:25:51.394Z,6.53
2018-07-23T10:28:19.432Z,5.80
2018-07-23T10:30:47.535Z,5.58
2018-07-23T10:33:15.491Z,5.78
2018-07-23T10:35:43.544Z,4.70
2018-07-23T10:38:11.688Z,5.70
2018-07-23T10:40:39.868Z,3.45
2018-07-23T10:43:19.863Z,4.33
2018-07-23T10:45:47.981Z,4.50
2018-07-23T10:48:15.902Z,5.90
2018-07-23T10:50:43.909Z,4.90
2018-07-23T10:53:12.013Z,5.72
2018-07-23T10:55:40.092Z,4.87
2018-07-23T10:58:08.161Z,6.00
2018-07-23T11:00:36.257Z,5.67
2018-07-23T11:03:04.258Z,4.47
2018-07-23T11:05:32.601Z,7.85
2018-07-23T11:08:00.615Z,7.20
2018-07-23T11:10:28.557Z,6.45
2018-07-23T11:12:56.582Z,8.25
2018-07-23T11:15:25.657Z,5.90
2018-07-23T11:17:54.253Z,6.12
2018-07-23T11:20:22.238Z,6.67
2018-07-23T11:22:50.297Z,6.15
2018-07-23T11:25:39.178Z,4.92
2018-07-23T11:27:46.751Z,5.30
2018-07-23T11:30:14.942Z,6.22
2018-07-23T11:32:43.062Z,4.58
2018-07-23T11:35:11.117Z,4.60
2018-07-23T11:37:39.248Z,5.33
2018-07-23T11:40:07.343Z,6.03
2018-07-23T11:42:35.859Z,5.92
2018-07-23T11:45:04.707Z,5.45
2018-07-23T11:47:32.656Z,5.25
2018-07-23T11:58:32.185Z,6.95
2018-07-23T12:01:00.531Z,8.25
2018-07-23T12:03:28.486Z,5.78
2018-07-23T12:05:56.385Z,5.95
2018-07-23T12:08:24.401Z,7.75
2018-07-23T12:10:52.646Z,8.00
2018-07-23T12:13:20.649Z,8.38
2018-07-23T12:15:48.697Z,8.60
2018-07-23T12:18:16.816Z,9.43
2018-07-23T12:20:44.830Z,9.85
2018-07-23T12:23:12.849Z,7.80
2018-07-23T12:25:40.907Z,10.13
2018-07-23T12:28:09.083Z,7.55
2018-07-23T12:30:37.231Z,5.95
2018-07-23T12:33:05.412Z,5.95
2018-07-23T12:35:33.582Z,4.62
2018-07-23T12:38:01.595Z,6.40
2018-07-23T12:40:29.630Z,6.97
2018-07-23T12:42:57.716Z,7.50
2018-07-23T12:45:25.752Z,4.70
2018-07-23T12:47:53.880Z,4.40
2018-07-23T12:50:21.843Z,5.17
2018-07-23T12:52:50.072Z,5.12
2018-07-23T12:55:18.175Z,4.42
2018-07-23T12:57:46.275Z,5.42
2018-07-23T13:00:14.286Z,7.03
2018-07-23T13:02:42.322Z,3.65
2018-07-23T13:05:10.117Z,6.45
2018-07-23T13:07:38.147Z,4.45
2018-07-23T13:10:06.173Z,4.45
2018-07-23T13:12:34.245Z,4.87
2018-07-23T13:15:02.337Z,4.28
2018-07-23T13:17:30.287Z,3.58
2018-07-23T13:19:58.947Z,3.72
2018-07-23T13:22:26.955Z,4.97
2018-07-23T13:24:55.374Z,3.30
2018-07-23T13:27:23.331Z,3.52
2018-07-23T13:29:51.426Z,3.00
2018-07-23T13:32:19.481Z,3.85
2018-07-23T13:34:47.492Z,2.90
2018-07-23T13:37:15.625Z,5.50
2018-07-23T13:39:43.636Z,4.55
2018-07-23T13:42:11.775Z,3.37
2018-07-23T13:44:39.987Z,5.65
2018-07-23T13:47:07.976Z,4.60
2018-07-23T13:49:36.027Z,3.47
2018-07-23T13:52:05.953Z,3.98
2018-07-23T13:54:33.967Z,5.20
2018-07-23T13:57:03.091Z,4.20
2018-07-23T13:59:31.181Z,4.58
2018-07-23T14:01:59.194Z,4.60
2018-07-23T14:04:27.313Z,5.75
2018-07-23T14:06:55.460Z,6.03
2018-07-23T14:09:23.728Z,8.05
2018-07-23T14:11:51.822Z,6.37
2018-07-23T14:14:20.070Z,9.65
2018-07-23T14:16:48.092Z,10.53
2018-07-23T14:19:16.116Z,9.20
2018-07-23T14:21:44.316Z,9.78
2018-07-23T14:24:12.399Z,10.32
2018-07-23T14:26:40.428Z,9.83
2018-07-23T14:29:08.578Z,11.35
2018-07-23T14:31:36.694Z,10.00
2018-07-23T14:34:04.892Z,9.68
2018-07-23T14:36:33.004Z,12.03
2018-07-23T14:39:01.260Z,11.30
2018-07-23T14:41:29.267Z,10.65
2018-07-23T14:43:57.860Z,10.90
2018-07-23T14:46:25.961Z,10.58
2018-07-23T14:48:53.957Z,11.55
2018-07-23T14:51:21.997Z,11.80
2018-07-23T14:53:50.317Z,10.65
2018-07-23T14:56:18.483Z,11.40
2018-07-23T14:58:46.587Z,11.38
2018-07-23T15:01:14.740Z,10.88
2018-07-23T15:03:42.923Z,11.85
2018-07-23T15:06:11.197Z,11.30
2018-07-23T15:08:39.466Z,12.60
2018-07-23T15:11:07.543Z,13.22
2018-07-23T15:13:35.643Z,10.53
2018-07-23T15:16:03.804Z,11.55
2018-07-23T15:18:31.892Z,12.18
2018-07-23T15:20:59.973Z,12.20
2018-07-23T15:23:29.142Z,11.68
2018-07-23T15:25:57.315Z,12.00
2018-07-23T15:28:25.435Z,12.73
2018-07-23T15:30:53.414Z,12.60
2018-07-23T15:33:21.663Z,11.73
2018-07-23T15:35:49.788Z,14.10
2018-07-23T15:38:18.319Z,13.72
2018-07-23T15:40:46.526Z,13.45
2018-07-23T15:43:14.574Z,13.90
2018-07-23T15:45:42.980Z,13.45
2018-07-23T15:48:10.931Z,14.45
2018-07-23T15:50:38.927Z,13.15
2018-07-23T15:53:07.139Z,12.28
2018-07-23T15:55:35.355Z,12.82
2018-07-23T15:58:03.434Z,12.93
2018-07-23T16:00:31.530Z,13.83
2018-07-23T16:02:59.973Z,15.72
2018-07-23T16:05:28.208Z,16.42
2018-07-23T16:07:56.289Z,19.25
2018-07-23T16:10:24.518Z,14.75
2018-07-23T16:12:52.626Z,14.58
2018-07-23T16:15:20.660Z,13.93
2018-07-23T16:17:48.644Z,15.23
2018-07-23T16:20:17.897Z,16.07
2018-07-23T16:22:46.031Z,14.47
2018-07-23T16:25:14.107Z,16.70
2018-07-23T16:27:42.406Z,14.85
2018-07-23T16:30:10.754Z,16.35
2018-07-23T16:32:38.976Z,14.03
2018-07-23T16:35:09.261Z,17.57
2018-07-23T16:37:37.530Z,15.30
2018-07-23T16:40:06.305Z,15.10
2018-07-23T16:42:34.581Z,15.50
2018-07-23T16:45:02.805Z,15.00
2018-07-23T16:47:30.816Z,16.05
2018-07-23T16:49:59.190Z,14.90
2018-07-23T16:52:27.245Z,14.65
2018-07-23T16:54:56.426Z,15.00
2018-07-23T16:57:24.457Z,14.23
2018-07-23T16:59:52.516Z,16.50
2018-07-23T17:02:20.637Z,15.35
2018-07-23T17:04:48.764Z,16.32
2018-07-23T17:07:16.872Z,14.38
2018-07-23T17:09:44.922Z,15.25
2018-07-23T17:12:13.054Z,14.53
2018-07-23T17:14:41.154Z,15.10
2018-07-23T17:17:09.321Z,15.65
2018-07-23T17:19:37.563Z,13.65
2018-07-23T17:22:05.671Z,17.65
2018-07-23T17:24:35.246Z,16.75
2018-07-23T17:27:03.628Z,15.30
2018-07-23T17:29:31.766Z,16.07
2018-07-23T17:32:00.056Z,16.25
2018-07-23T17:34:28.464Z,16.20
2018-07-23T17:36:56.437Z,15.03
2018-07-23T17:39:24.615Z,16.23
2018-07-23T17:41:53.167Z,17.52
2018-07-23T17:44:21.490Z,16.00
2018-07-23T17:46:49.426Z,15.83
2018-07-23T17:49:17.589Z,18.85
2018-07-23T17:51:45.525Z,15.72
2018-07-23T17:54:13.553Z,15.83
2018-07-23T17:56:41.638Z,16.90
2018-07-23T17:59:09.815Z,17.37
2018-07-23T18:01:38.129Z,18.02
2018-07-23T18:04:06.348Z,19.73
2018-07-23T18:06:34.416Z,20.55
2018-07-23T18:09:02.589Z,21.33
2018-07-23T18:11:30.744Z,21.40
2018-07-23T18:13:58.760Z,21.37
2018-07-23T18:16:26.791Z,22.62
2018-07-23T18:18:54.827Z,21.65
2018-07-23T18:21:23.915Z,21.77
2018-07-23T18:23:52.073Z,23.10
2018-07-23T18:26:21.218Z,21.20
2018-07-23T18:28:49.291Z,23.32
2018-07-23T18:31:17.418Z,21.80
2018-07-23T18:33:45.658Z,22.93
2018-07-23T18:36:13.959Z,21.85
2018-07-23T18:38:42.091Z,21.52
2018-07-23T18:41:10.299Z,20.90
2018-07-23T18:43:38.443Z,19.62
2018-07-23T18:46:07.854Z,19.02
2018-07-23T18:49:45.737Z,24.25
2018-07-23T18:52:14.443Z,22.48
2018-07-23T18:54:44.038Z,20.52
2018-07-23T18:57:12.553Z,20.75
2018-07-23T18:59:40.599Z,17.80
2018-07-23T19:02:10.030Z,16.60
2018-07-23T19:04:38.146Z,17.57
2018-07-23T19:07:06.954Z,17.98
2018-07-23T19:09:35.055Z,17.35
2018-07-23T19:12:03.361Z,20.30
2018-07-23T19:14:31.589Z,23.77
2018-07-23T19:17:01.212Z,23.15
2018-07-23T19:19:29.611Z,23.57
2018-07-23T19:21:58.612Z,23.10
2018-07-23T19:24:26.836Z,23.80
2018-07-23T19:26:54.854Z,22.45
2018-07-23T19:29:22.985Z,22.52
2018-07-23T19:31:51.116Z,21.70
2018-07-23T19:34:19.199Z,22.07
2018-07-23T19:36:47.384Z,22.93
2018-07-23T19:39:17.590Z,20.57
2018-07-23T19:41:45.782Z,20.80
2018-07-23T19:44:13.988Z,19.10
2018-07-23T19:46:42.767Z,19.45
2018-07-23T19:49:10.787Z,18.27
2018-07-23T19:51:38.906Z,18.60
2018-07-23T19:54:07.837Z,19.32
2018-07-23T19:56:35.857Z,18.77
2018-07-23T19:59:04.036Z,17.87
2018-07-23T20:01:32.303Z,18.20
2018-07-23T20:04:00.557Z,22.60
2018-07-23T20:06:29.122Z,18.17
2018-07-23T20:08:58.298Z,21.12
2018-07-23T20:11:27.179Z,20.15
2018-07-23T20:13:55.315Z,21.27
2018-07-23T20:16:23.351Z,20.48
2018-07-23T20:18:51.511Z,20.30
2018-07-23T20:21:19.483Z,20.57
2018-07-23T20:23:47.538Z,21.35
2018-07-23T20:26:15.660Z,19.70
2018-07-23T20:28:43.684Z,20.97
2018-07-23T20:31:11.673Z,19.73
2018-07-23T20:33:39.685Z,20.40
2018-07-23T20:36:07.825Z,22.15
2018-07-23T20:38:36.386Z,19.75
2018-07-23T20:41:04.424Z,21.42
2018-07-23T20:43:32.874Z,21.48
2018-07-23T20:46:01.169Z,21.82
2018-07-23T20:48:29.245Z,23.25
2018-07-23T20:50:57.440Z,20.60
2018-07-23T20:53:25.637Z,21.25
2018-07-23T20:55:53.789Z,20.75
2018-07-23T20:58:22.102Z,21.73
2018-07-23T21:00:50.212Z,20.92
2018-07-23T21:03:18.421Z,22.27
2018-07-23T21:05:46.422Z,21.82
2018-07-23T21:08:14.357Z,21.37
2018-07-23T21:10:42.416Z,21.55
2018-07-23T21:13:10.653Z,24.60
2018-07-23T21:15:38.730Z,24.43
2018-07-23T21:18:07.294Z,23.55
2018-07-23T21:20:35.310Z,24.45
2018-07-23T21:23:03.304Z,27.35
2018-07-23T21:25:31.392Z,39.10
2018-07-23T21:27:59.324Z,36.68
2018-07-23T21:30:27.726Z,26.50
2018-07-23T21:32:55.817Z,27.87
2018-07-23T21:35:23.828Z,27.10
2018-07-23T21:37:51.829Z,27.90
2018-07-23T21:40:19.823Z,27.67
2018-07-23T21:42:47.819Z,27.73
2018-07-23T21:45:15.893Z,28.45
2018-07-23T21:47:43.866Z,28.17
2018-07-23T21:50:11.781Z,26.70
2018-07-23T21:52:39.865Z,26.77
2018-07-23T21:55:08.061Z,26.75
2018-07-23T21:57:36.015Z,27.93
2018-07-23T22:00:06.806Z,28.07
2018-07-23T22:02:34.806Z,26.33
2018-07-23T22:05:02.843Z,26.75
2018-07-23T22:07:30.862Z,26.93
2018-07-23T22:09:58.986Z,24.15
2018-07-23T22:12:26.947Z,25.05
2018-07-23T22:14:54.907Z,24.75
2018-07-23T22:17:23.147Z,24.27
2018-07-23T22:19:51.319Z,23.22
2018-07-23T22:22:19.319Z,24.47
2018-07-23T22:24:47.327Z,23.87
2018-07-23T22:27:15.514Z,25.27
2018-07-23T22:29:43.507Z,26.77
2018-07-23T22:32:11.662Z,24.20
2018-07-23T22:34:39.649Z,25.90
2018-07-23T22:37:07.686Z,25.88
2018-07-23T22:39:35.722Z,27.45
2018-07-23T22:42:03.909Z,22.27
2018-07-23T22:44:31.846Z,20.05
2018-07-23T22:46:59.789Z,21.68
2018-07-23T22:49:27.862Z,19.48
2018-07-23T22:51:55.943Z,20.88
2018-07-23T22:54:24.023Z,20.95
2018-07-23T22:56:51.947Z,20.68
2018-07-23T22:59:20.009Z,23.90
2018-07-23T23:01:47.961Z,20.12
2018-07-23T23:04:15.862Z,20.77
2018-07-23T23:06:43.869Z,22.70
2018-07-23T23:09:11.974Z,22.15
2018-07-23T23:11:39.938Z,19.77
2018-07-23T23:14:08.047Z,20.70
2018-07-23T23:16:36.192Z,22.65
2018-07-23T23:19:04.375Z,21.33
2018-07-23T23:21:32.453Z,22.77
2018-07-23T23:24:00.391Z,23.90
2018-07-23T23:26:28.391Z,25.85
2018-07-23T23:28:56.505Z,27.55
2018-07-23T23:31:24.492Z,29.12
2018-07-23T23:33:52.663Z,30.60
2018-07-23T23:36:20.705Z,30.77
2018-07-23T23:38:48.669Z,24.75
2018-07-23T23:41:16.734Z,30.80
2018-07-23T23:43:44.732Z,29.35
2018-07-23T23:46:12.751Z,28.67
2018-07-23T23:48:40.754Z,31.12
2018-07-23T23:51:08.919Z,30.77
2018-07-23T23:53:36.945Z,32.55
2018-07-23T23:56:05.140Z,29.65
2018-07-23T23:58:33.233Z,30.40
